< Typhoon 200618 2006 Season Typhoon 200620 >
Typhoon 200619 (CIMARON)
General InformationTrack Information on Google MapsDetailed Wind InformationAccess Analytics MapList of All Images || NewsDisaster Info.WeblogTrackbackTyphoon FrontResourceGoogle EarthGE AnimationAtom FeedGeoJSON
Detalied Best Track (Time Zone = UTC)
Year Month Day Hour Lat. Long. Pressure (hPa) Wind (kt) Class Image Chart
2006 10 25 06 12.3 141.6 1006 0 2 Image Chart
2006 10 25 12 12.1 140.3 1008 0 2 Image Chart
2006 10 25 18 12.0 138.9 1006 0 2 Image Chart
2006 10 26 00 11.9 137.8 1008 0 2 Image Chart
2006 10 26 06 11.9 136.5 1006 0 2 Image Chart
2006 10 26 12 11.9 134.9 1006 0 2 Image Chart
2006 10 26 18 12.2 133.4 1006 0 2 Image Chart
2006 10 27 00 12.5 132.2 1004 0 2 Image Chart
2006 10 27 06 13.0 131.0 1000 35 3 Image Chart
2006 10 27 12 13.5 130.3 992 45 3 Image Chart
2006 10 27 18 14.0 129.1 985 50 4 Image Chart
2006 10 28 00 14.3 128.2 980 55 4 Image Chart
2006 10 28 06 14.9 127.2 975 65 5 Image Chart
2006 10 28 12 15.3 126.4 960 75 5 Image Chart
2006 10 28 18 15.7 125.7 950 90 5 Image Chart
2006 10 29 00 16.0 124.7 930 95 5 Image Chart
2006 10 29 06 16.3 123.6 920 100 5 Image Chart
2006 10 29 12 16.5 122.6 920 100 5 Image Chart
2006 10 29 18 16.7 121.3 945 90 5 Image Chart
2006 10 30 00 17.0 119.8 955 80 5 Image Chart
2006 10 30 06 16.7 118.8 960 80 5 Image Chart
2006 10 30 12 16.7 118.6 965 80 5 Image Chart
2006 10 30 18 17.1 117.8 965 80 5 Image Chart
2006 10 31 00 17.4 117.2 965 80 5 Image Chart
2006 10 31 06 17.8 116.8 965 80 5 Image Chart
2006 10 31 12 18.1 116.5 965 80 5 Image Chart
2006 10 31 18 18.5 116.3 965 80 5 Image Chart
2006 11 1 00 18.7 116.3 955 80 5 Image Chart
2006 11 1 06 18.9 116.3 950 85 5 Image Chart
2006 11 1 12 19.0 116.3 945 90 5 Image Chart
2006 11 1 18 19.1 116.4 945 90 5 Image Chart
2006 11 2 00 19.1 116.5 950 85 5 Image Chart
2006 11 2 06 19.0 116.6 960 75 5 Image Chart
2006 11 2 12 18.8 116.6 965 65 5 Image Chart
2006 11 2 18 18.0 116.4 970 60 4 Image Chart
2006 11 3 00 17.5 116.2 975 55 4 Image Chart
2006 11 3 06 17.2 116.1 980 55 4 Image Chart
2006 11 3 12 16.9 116.0 985 50 4 Image Chart
2006 11 3 18 16.7 115.9 990 45 3 Image Chart
2006 11 4 00 16.5 115.8 996 40 3 Image Chart
2006 11 4 06 16.3 115.8 1000 35 3 Image Chart
2006 11 4 12 16.1 115.7 1002 0 2 Image Chart
2006 11 4 18 15.7 115.5 1002 0 2 Image Chart
2006 11 5 00 15.5 115.2 1002 0 2 Image Chart
2006 11 5 06 15.1 114.9 1002 0 2 Image Chart
2006 11 5 12 14.8 114.6 1002 0 2 Image Chart
2006 11 5 18 14.6 114.3 1002 0 2 Image Chart
2006 11 6 00 14.5 114.0 1002 0 2 Image Chart
2006 11 6 06 14.2 112.8 1004 0 2 Image Chart
2006 11 6 12 13.5 112.1 1006 0 2 Image Chart
2006 11 6 18 12.5 111.4 1008 0 2 Image Chart
Japan Meteorological Agency Best Track Data | Correction Date : 2006-12-13
< Typhoon 200618 2006 Season Typhoon 200620 >

Help